createdAt,value
2017-05-16T00:00:38.156Z,0
2017-05-16T00:01:18.603Z,0
2017-05-16T00:01:59.069Z,0
2017-05-16T00:02:39.551Z,0
2017-05-16T00:03:20.114Z,0
2017-05-16T00:04:00.625Z,0
2017-05-16T00:04:41.159Z,0
2017-05-16T00:05:21.638Z,0
2017-05-16T00:06:02.125Z,0
2017-05-16T00:06:42.621Z,0
2017-05-16T00:07:23.098Z,0
2017-05-16T00:08:03.583Z,0
2017-05-16T00:08:44.035Z,0
2017-05-16T00:09:24.565Z,0
2017-05-16T00:10:05.072Z,0
2017-05-16T00:10:45.568Z,0
2017-05-16T00:11:26.255Z,0
2017-05-16T00:12:06.770Z,0
2017-05-16T00:12:47.228Z,0
2017-05-16T00:13:27.735Z,0
2017-05-16T00:14:08.226Z,0
2017-05-16T00:14:48.683Z,0
2017-05-16T00:15:29.155Z,0
2017-05-16T00:16:09.709Z,0
2017-05-16T00:16:50.214Z,0
2017-05-16T00:17:30.713Z,0
2017-05-16T00:18:11.222Z,0
2017-05-16T00:18:51.637Z,0
2017-05-16T00:19:32.138Z,0
2017-05-16T00:20:12.639Z,0
2017-05-16T00:20:53.158Z,0
2017-05-16T00:21:33.690Z,0
2017-05-16T00:22:14.152Z,0
2017-05-16T00:22:54.671Z,0
2017-05-16T00:23:35.198Z,0
2017-05-16T00:24:15.667Z,0
2017-05-16T00:24:56.133Z,0
2017-05-16T00:25:36.631Z,0
2017-05-16T00:26:17.119Z,0
2017-05-16T00:26:57.590Z,0
2017-05-16T00:27:38.101Z,0
2017-05-16T00:28:18.584Z,0
2017-05-16T00:28:59.035Z,0
2017-05-16T00:29:39.564Z,0
2017-05-16T00:30:20.012Z,0
2017-05-16T00:31:00.491Z,0
2017-05-16T00:31:41.023Z,0
2017-05-16T00:32:21.506Z,0
2017-05-16T00:33:02.008Z,0
2017-05-16T00:33:42.473Z,0
2017-05-16T00:34:22.965Z,0
2017-05-16T00:35:03.510Z,0
2017-05-16T00:35:43.953Z,0
2017-05-16T00:36:24.448Z,0
2017-05-16T00:37:04.958Z,0
2017-05-16T00:37:45.405Z,0
2017-05-16T00:38:25.891Z,0
2017-05-16T00:39:06.366Z,0
2017-05-16T00:39:46.897Z,0
2017-05-16T00:40:27.358Z,0
2017-05-16T00:41:07.819Z,0
2017-05-16T00:41:48.300Z,0
2017-05-16T00:42:28.813Z,0
2017-05-16T00:43:09.325Z,0
2017-05-16T00:43:49.738Z,0
2017-05-16T00:44:30.239Z,0
2017-05-16T00:45:10.730Z,0
2017-05-16T00:45:51.224Z,0
2017-05-16T00:46:31.678Z,0
2017-05-16T00:47:12.116Z,0
2017-05-16T00:47:52.622Z,0
2017-05-16T00:48:33.088Z,0
2017-05-16T00:49:13.590Z,0
2017-05-16T00:49:54.037Z,0
2017-05-16T00:50:34.546Z,0
2017-05-16T00:51:15.047Z,0
2017-05-16T00:51:55.525Z,0
2017-05-16T00:52:36.060Z,0
2017-05-16T00:53:16.574Z,0
2017-05-16T00:53:57.078Z,0
2017-05-16T00:54:37.571Z,0
2017-05-16T00:55:18.029Z,0
2017-05-16T00:55:58.526Z,0
2017-05-16T00:56:39.028Z,0
2017-05-16T00:57:19.468Z,0
2017-05-16T00:57:59.957Z,0
2017-05-16T00:58:41.099Z,0
2017-05-16T00:59:21.547Z,0
2017-05-16T01:00:01.980Z,0
2017-05-16T01:00:42.502Z,0
2017-05-16T01:01:22.969Z,0
2017-05-16T01:02:03.431Z,0
2017-05-16T01:02:43.888Z,0
2017-05-16T01:03:24.415Z,0
2017-05-16T01:04:05.000Z,0
2017-05-16T01:04:45.483Z,0
2017-05-16T01:05:25.960Z,0
2017-05-16T01:06:06.500Z,0
2017-05-16T01:06:46.911Z,0
2017-05-16T01:07:27.425Z,0
2017-05-16T01:08:07.871Z,0
2017-05-16T01:08:48.390Z,0
2017-05-16T01:09:28.817Z,0
2017-05-16T01:10:09.324Z,0
2017-05-16T01:10:49.920Z,0
2017-05-16T01:11:30.418Z,0
2017-05-16T01:12:10.876Z,0
2017-05-16T01:12:51.347Z,0
2017-05-16T01:13:31.845Z,0
2017-05-16T01:14:12.321Z,0
2017-05-16T01:14:52.835Z,0
2017-05-16T01:15:33.284Z,0
2017-05-16T01:16:13.758Z,0
2017-05-16T01:16:54.221Z,0
2017-05-16T01:17:34.750Z,0
2017-05-16T01:18:15.281Z,0
2017-05-16T01:18:55.716Z,0
2017-05-16T01:19:36.182Z,0
2017-05-16T01:20:16.635Z,0
2017-05-16T01:20:57.161Z,0
2017-05-16T01:21:37.627Z,0
2017-05-16T01:22:18.128Z,0
2017-05-16T01:22:58.548Z,0
2017-05-16T01:23:39.040Z,0
2017-05-16T01:24:19.566Z,0
2017-05-16T01:25:00.055Z,0
2017-05-16T01:25:40.533Z,0
2017-05-16T01:26:21.039Z,0
2017-05-16T01:27:01.533Z,0
2017-05-16T01:27:41.991Z,0
2017-05-16T01:28:22.505Z,0
2017-05-16T01:29:02.999Z,0
2017-05-16T01:29:43.465Z,0
2017-05-16T01:30:23.973Z,0
2017-05-16T01:31:04.451Z,0
2017-05-16T01:31:44.947Z,0
2017-05-16T01:32:25.411Z,0
2017-05-16T01:33:06.031Z,0
2017-05-16T01:33:46.468Z,0
2017-05-16T01:34:26.961Z,0
2017-05-16T01:35:07.532Z,0
2017-05-16T01:35:48.035Z,0
2017-05-16T01:36:28.527Z,0
2017-05-16T01:37:09.010Z,0
2017-05-16T01:37:49.478Z,0
2017-05-16T01:38:29.931Z,0
2017-05-16T01:39:10.416Z,0
2017-05-16T01:39:50.952Z,0
2017-05-16T01:40:31.399Z,0
2017-05-16T01:41:11.890Z,0
2017-05-16T01:41:52.385Z,0
2017-05-16T01:42:32.825Z,0
2017-05-16T01:43:13.355Z,0
2017-05-16T01:43:53.804Z,0
2017-05-16T01:44:34.303Z,0
2017-05-16T01:45:14.817Z,0
2017-05-16T01:45:55.267Z,0
2017-05-16T01:46:35.765Z,0
2017-05-16T01:47:16.236Z,0
2017-05-16T01:47:56.705Z,0
2017-05-16T01:48:37.196Z,0
2017-05-16T01:49:17.692Z,0
2017-05-16T01:49:58.153Z,0
2017-05-16T01:50:38.600Z,0
2017-05-16T01:51:19.114Z,0
2017-05-16T01:51:59.607Z,0
2017-05-16T01:52:40.070Z,0
2017-05-16T01:53:20.551Z,0
2017-05-16T01:54:01.029Z,0
2017-05-16T01:54:41.546Z,0
2017-05-16T01:55:21.966Z,0
2017-05-16T01:56:02.456Z,0
2017-05-16T01:56:42.930Z,0
2017-05-16T01:57:23.425Z,0
2017-05-16T01:58:03.897Z,0
2017-05-16T01:58:44.393Z,0
2017-05-16T01:59:24.880Z,0
2017-05-16T02:00:05.387Z,0
2017-05-16T02:00:45.887Z,0
2017-05-16T02:01:26.399Z,0
2017-05-16T02:02:06.857Z,0
2017-05-16T02:02:47.311Z,0
2017-05-16T02:03:27.861Z,0
2017-05-16T02:04:08.337Z,0
2017-05-16T02:04:48.799Z,0
2017-05-16T02:05:29.301Z,0
2017-05-16T02:06:09.839Z,0
2017-05-16T02:06:50.256Z,0
2017-05-16T02:07:30.760Z,0
2017-05-16T02:08:11.277Z,0
2017-05-16T02:08:51.722Z,0
2017-05-16T02:09:32.233Z,0
2017-05-16T02:10:12.754Z,0
2017-05-16T02:10:53.313Z,0
2017-05-16T02:11:33.790Z,0
2017-05-16T02:12:14.273Z,0
2017-05-16T02:12:54.813Z,0
2017-05-16T02:13:35.275Z,0
2017-05-16T02:14:15.742Z,0
2017-05-16T02:14:56.248Z,0
2017-05-16T02:15:36.686Z,0
2017-05-16T02:16:17.223Z,0
2017-05-16T02:16:57.685Z,0
2017-05-16T02:17:38.161Z,0
2017-05-16T02:18:18.625Z,0
2017-05-16T02:18:59.070Z,0
2017-05-16T02:19:39.605Z,0
2017-05-16T02:20:20.079Z,0
2017-05-16T02:21:00.605Z,0
2017-05-16T02:21:41.112Z,0
2017-05-16T02:22:21.543Z,0
2017-05-16T02:23:02.075Z,0
2017-05-16T02:23:42.526Z,0
2017-05-16T02:24:23.039Z,0
2017-05-16T02:25:03.473Z,0
2017-05-16T02:25:43.933Z,0
2017-05-16T02:26:24.402Z,0
2017-05-16T02:27:04.881Z,0
2017-05-16T02:27:45.365Z,0
2017-05-16T02:28:25.861Z,0
2017-05-16T02:29:06.377Z,0
2017-05-16T02:29:46.852Z,0
2017-05-16T02:30:27.337Z,0
2017-05-16T02:31:07.767Z,0
2017-05-16T02:31:48.282Z,0
2017-05-16T02:32:28.742Z,0
2017-05-16T02:33:09.211Z,0
2017-05-16T02:33:49.697Z,0
2017-05-16T02:34:30.192Z,0
2017-05-16T02:35:10.709Z,0
2017-05-16T02:35:51.214Z,0
2017-05-16T02:36:31.752Z,0
2017-05-16T02:37:12.239Z,0
2017-05-16T02:37:52.714Z,0
2017-05-16T02:38:33.204Z,0
2017-05-16T02:39:13.657Z,0
2017-05-16T02:39:54.132Z,0
2017-05-16T02:40:34.669Z,0
2017-05-16T02:41:15.187Z,0
2017-05-16T02:41:55.627Z,0
2017-05-16T02:42:36.120Z,0
2017-05-16T02:43:16.550Z,0
2017-05-16T02:43:57.048Z,0
2017-05-16T02:44:37.492Z,0
2017-05-16T02:45:17.978Z,0
2017-05-16T02:45:58.474Z,0
2017-05-16T02:46:38.944Z,0
2017-05-16T02:47:19.468Z,0
2017-05-16T02:47:59.939Z,0
2017-05-16T02:48:40.422Z,0
2017-05-16T02:49:20.888Z,0
2017-05-16T02:50:01.386Z,0
2017-05-16T02:50:41.892Z,0
2017-05-16T02:51:22.437Z,0
2017-05-16T02:52:02.893Z,0
2017-05-16T02:52:43.386Z,0
2017-05-16T02:53:23.864Z,0
2017-05-16T02:54:04.345Z,0
2017-05-16T02:54:44.912Z,0
2017-05-16T02:55:25.301Z,0
2017-05-16T02:56:05.822Z,0
2017-05-16T02:56:46.318Z,0
2017-05-16T02:57:26.836Z,0
2017-05-16T02:58:07.335Z,0
2017-05-16T02:58:47.805Z,0
2017-05-16T02:59:28.240Z,0
2017-05-16T03:00:08.786Z,0
2017-05-16T03:00:49.270Z,0
2017-05-16T03:01:29.692Z,0
2017-05-16T03:02:10.180Z,0
2017-05-16T03:02:50.702Z,0
2017-05-16T03:03:31.149Z,0
2017-05-16T03:04:11.615Z,0
2017-05-16T03:04:52.126Z,0
2017-05-16T03:05:32.596Z,0
2017-05-16T03:06:13.095Z,0
2017-05-16T03:06:53.596Z,0
2017-05-16T03:07:34.057Z,0
2017-05-16T03:08:14.523Z,0
2017-05-16T03:08:55.044Z,0
2017-05-16T03:09:35.518Z,0
2017-05-16T03:10:15.995Z,0
2017-05-16T03:10:56.501Z,0
2017-05-16T03:11:36.915Z,0
2017-05-16T03:12:17.423Z,0
2017-05-16T03:12:57.896Z,0
2017-05-16T03:13:38.378Z,0
2017-05-16T03:14:18.900Z,0
2017-05-16T03:14:59.356Z,0
2017-05-16T03:15:39.920Z,0
2017-05-16T03:16:20.414Z,0
2017-05-16T03:17:01.085Z,0
2017-05-16T03:17:41.404Z,0
2017-05-16T03:18:21.869Z,0
2017-05-16T03:19:02.369Z,0
2017-05-16T03:19:42.857Z,0
2017-05-16T03:20:23.318Z,0
2017-05-16T03:21:03.769Z,0
2017-05-16T03:21:44.240Z,0
2017-05-16T03:22:24.733Z,0
2017-05-16T03:23:05.224Z,0
2017-05-16T03:23:45.738Z,0
2017-05-16T03:24:26.235Z,0
2017-05-16T03:25:06.750Z,0
2017-05-16T03:25:47.216Z,0
2017-05-16T03:26:27.726Z,0
2017-05-16T03:27:08.262Z,0
2017-05-16T03:27:48.697Z,0
2017-05-16T03:28:29.182Z,0
2017-05-16T03:29:09.670Z,0
2017-05-16T03:29:50.166Z,0
2017-05-16T03:30:30.646Z,5
2017-05-16T03:31:11.386Z,5
2017-05-16T03:31:51.851Z,5
2017-05-16T03:32:32.359Z,5
2017-05-16T03:33:12.821Z,5
2017-05-16T03:33:53.290Z,5
2017-05-16T03:34:33.789Z,5
2017-05-16T03:35:14.262Z,5
2017-05-16T03:35:54.753Z,5
2017-05-16T03:36:35.234Z,5
2017-05-16T03:37:15.718Z,5
2017-05-16T03:37:56.209Z,5
2017-05-16T03:38:36.708Z,5
2017-05-16T03:39:17.209Z,5
2017-05-16T03:39:57.679Z,5
2017-05-16T03:40:38.194Z,5
2017-05-16T03:41:18.654Z,5
2017-05-16T03:41:59.126Z,5
2017-05-16T03:42:39.580Z,5
2017-05-16T03:43:20.047Z,5
2017-05-16T03:44:00.576Z,5
2017-05-16T03:44:41.022Z,5
2017-05-16T03:45:21.517Z,5
2017-05-16T03:46:02.036Z,10
2017-05-16T03:46:42.549Z,10
2017-05-16T03:47:23.150Z,10
2017-05-16T03:48:03.618Z,10
2017-05-16T03:48:44.109Z,10
2017-05-16T03:49:24.572Z,10
2017-05-16T03:50:05.048Z,10
2017-05-16T03:50:45.529Z,10
2017-05-16T03:51:26.070Z,10
2017-05-16T03:52:06.493Z,10
2017-05-16T03:52:46.958Z,10
2017-05-16T03:53:27.417Z,10
2017-05-16T03:54:07.950Z,10
2017-05-16T03:54:48.405Z,10
2017-05-16T03:55:28.948Z,15
2017-05-16T03:56:09.396Z,15
2017-05-16T03:56:49.871Z,15
2017-05-16T03:57:30.359Z,15
2017-05-16T03:58:10.862Z,15
2017-05-16T03:58:51.337Z,20
2017-05-16T03:59:31.882Z,20
2017-05-16T04:00:12.428Z,20
2017-05-16T04:00:52.847Z,20
2017-05-16T04:01:33.362Z,20
2017-05-16T04:02:13.812Z,20
2017-05-16T04:02:54.351Z,20
2017-05-16T04:03:34.832Z,20
2017-05-16T04:04:15.321Z,20
2017-05-16T04:04:55.782Z,20
2017-05-16T04:05:36.313Z,20
2017-05-16T04:06:16.789Z,20
2017-05-16T04:06:57.300Z,20
2017-05-16T04:07:37.762Z,20
2017-05-16T04:08:18.307Z,20
2017-05-16T04:08:58.736Z,20
2017-05-16T04:09:39.224Z,20
2017-05-16T04:10:19.752Z,20
2017-05-16T04:11:00.227Z,20
2017-05-16T04:11:40.690Z,20
2017-05-16T04:12:21.184Z,20
2017-05-16T04:13:01.754Z,20
2017-05-16T04:13:42.219Z,25
2017-05-16T04:14:22.742Z,25
2017-05-16T04:15:03.252Z,25
2017-05-16T04:15:43.716Z,25
2017-05-16T04:16:24.180Z,25
2017-05-16T04:17:04.676Z,25
2017-05-16T04:17:45.173Z,30
2017-05-16T04:18:25.604Z,30
2017-05-16T04:19:06.275Z,30
2017-05-16T04:19:46.799Z,30
2017-05-16T04:20:27.238Z,30
2017-05-16T04:21:07.701Z,30
2017-05-16T04:21:48.303Z,30
2017-05-16T04:22:28.816Z,30
2017-05-16T04:23:09.353Z,30
2017-05-16T04:23:49.870Z,30
2017-05-16T04:24:30.415Z,30
2017-05-16T04:25:10.870Z,30
2017-05-16T04:25:51.370Z,30
2017-05-16T04:26:31.807Z,30
2017-05-16T04:27:12.400Z,30
2017-05-16T04:27:52.883Z,30
2017-05-16T04:28:33.339Z,30
2017-05-16T04:29:13.853Z,30
2017-05-16T04:29:54.308Z,30
2017-05-16T04:30:34.791Z,30
2017-05-16T04:31:15.343Z,30
2017-05-16T04:31:55.866Z,35
2017-05-16T04:32:36.401Z,35
2017-05-16T04:33:16.896Z,35
2017-05-16T04:33:57.413Z,35
2017-05-16T04:34:38.165Z,35
2017-05-16T04:35:18.636Z,35
2017-05-16T04:35:59.386Z,35
2017-05-16T04:36:40.098Z,35
2017-05-16T04:37:20.617Z,35
2017-05-16T04:38:01.181Z,35
2017-05-16T04:38:41.816Z,35
2017-05-16T04:39:22.248Z,35
2017-05-16T04:40:02.826Z,35
2017-05-16T04:40:43.339Z,35
2017-05-16T04:41:23.801Z,35
2017-05-16T04:42:04.266Z,40
2017-05-16T04:42:44.758Z,40
2017-05-16T04:43:25.314Z,40
2017-05-16T04:44:05.775Z,40
2017-05-16T04:44:46.294Z,40
2017-05-16T04:45:26.774Z,40
2017-05-16T04:46:07.224Z,40
2017-05-16T04:46:47.718Z,40
2017-05-16T04:47:28.179Z,40
2017-05-16T04:48:08.751Z,40
2017-05-16T04:48:49.250Z,40
2017-05-16T04:49:29.736Z,40
2017-05-16T04:50:10.202Z,40
2017-05-16T04:50:50.674Z,40
2017-05-16T04:51:31.214Z,40
2017-05-16T04:52:11.669Z,40
2017-05-16T04:52:52.162Z,40
2017-05-16T04:53:32.628Z,40
2017-05-16T04:54:13.094Z,40
2017-05-16T04:54:53.614Z,45
2017-05-16T04:55:34.202Z,45
2017-05-16T04:56:14.626Z,50
2017-05-16T04:56:55.123Z,50
2017-05-16T04:57:35.614Z,45
2017-05-16T04:58:16.055Z,45
2017-05-16T04:58:56.542Z,45
2017-05-16T04:59:37.179Z,45
2017-05-16T05:00:17.703Z,45
2017-05-16T05:00:58.214Z,45
2017-05-16T05:01:38.689Z,45
2017-05-16T05:02:19.169Z,50
2017-05-16T05:02:59.665Z,50
2017-05-16T05:03:40.150Z,50
2017-05-16T05:04:20.667Z,55
2017-05-16T05:05:02.026Z,55
2017-05-16T05:05:42.566Z,55
2017-05-16T05:06:23.034Z,55
2017-05-16T05:07:03.467Z,55
2017-05-16T05:07:43.957Z,55
2017-05-16T05:08:24.504Z,55
2017-05-16T05:09:05.004Z,55
2017-05-16T05:09:45.462Z,55
2017-05-16T05:10:25.921Z,55
2017-05-16T05:11:06.472Z,55
2017-05-16T05:11:47.018Z,60
2017-05-16T05:12:27.508Z,60
2017-05-16T05:13:08.025Z,65
2017-05-16T05:13:48.556Z,65
2017-05-16T05:14:29.041Z,65
2017-05-16T05:15:09.630Z,65
2017-05-16T05:15:50.103Z,65
2017-05-16T05:16:30.599Z,65
2017-05-16T05:17:11.139Z,60
2017-05-16T05:17:51.629Z,60
2017-05-16T05:18:32.109Z,55
2017-05-16T05:19:12.604Z,55
2017-05-16T05:19:53.123Z,55
2017-05-16T05:20:33.560Z,55
2017-05-16T05:21:14.057Z,55
2017-05-16T05:21:54.581Z,55
2017-05-16T05:22:35.059Z,55
2017-05-16T05:23:15.540Z,60
2017-05-16T05:23:56.041Z,60
2017-05-16T05:24:36.566Z,60
2017-05-16T05:25:17.033Z,60
2017-05-16T05:25:57.524Z,60
2017-05-16T05:26:38.058Z,60
2017-05-16T05:27:18.511Z,60
2017-05-16T05:27:59.000Z,60
2017-05-16T05:28:39.490Z,60
2017-05-16T05:29:19.983Z,65
2017-05-16T05:30:00.481Z,65
2017-05-16T05:30:40.974Z,65
2017-05-16T05:31:21.658Z,70
2017-05-16T05:32:02.162Z,70
2017-05-16T05:32:42.631Z,70
2017-05-16T05:33:23.137Z,70
2017-05-16T05:34:03.682Z,70
2017-05-16T05:34:44.162Z,75
2017-05-16T05:35:24.661Z,75
2017-05-16T05:36:05.107Z,75
2017-05-16T05:36:45.579Z,80
2017-05-16T05:37:26.065Z,75
2017-05-16T05:38:06.542Z,75
2017-05-16T05:38:47.113Z,75
2017-05-16T05:39:27.592Z,75
2017-05-16T05:40:08.068Z,70
2017-05-16T05:40:48.569Z,70
2017-05-16T05:41:29.107Z,70
2017-05-16T05:42:09.590Z,70
2017-05-16T05:42:50.074Z,70
2017-05-16T05:43:30.612Z,75
2017-05-16T05:44:11.067Z,70
2017-05-16T05:44:51.564Z,70
2017-05-16T05:45:32.065Z,70
2017-05-16T05:46:12.540Z,70
2017-05-16T05:46:53.025Z,70
2017-05-16T05:47:33.502Z,70
2017-05-16T05:48:15.034Z,75
2017-05-16T05:48:55.519Z,75
2017-05-16T05:49:36.000Z,75
2017-05-16T05:50:16.492Z,75
2017-05-16T05:50:57.193Z,75
2017-05-16T05:51:37.643Z,75
2017-05-16T05:52:18.154Z,75
2017-05-16T05:52:58.696Z,80
2017-05-16T05:53:39.168Z,85
2017-05-16T05:54:19.658Z,85
2017-05-16T05:55:00.136Z,90
2017-05-16T05:55:40.669Z,90
2017-05-16T05:56:21.137Z,95
2017-05-16T05:57:01.649Z,100
2017-05-16T05:57:42.163Z,100
2017-05-16T05:58:22.678Z,105
2017-05-16T05:59:03.111Z,110
2017-05-16T05:59:43.609Z,115
2017-05-16T06:00:24.077Z,120
2017-05-16T06:01:04.727Z,120
2017-05-16T06:01:45.212Z,125
2017-05-16T06:02:25.719Z,125
2017-05-16T06:03:06.458Z,130
2017-05-16T06:03:46.967Z,135
2017-05-16T06:04:27.455Z,135
2017-05-16T06:05:07.927Z,140
2017-05-16T06:05:48.426Z,140
2017-05-16T06:06:28.981Z,140
2017-05-16T06:07:09.413Z,140
2017-05-16T06:07:49.883Z,140
2017-05-16T06:08:30.366Z,140
2017-05-16T06:09:10.889Z,135
2017-05-16T06:09:51.452Z,130
2017-05-16T06:10:31.968Z,130
2017-05-16T06:11:12.683Z,130
2017-05-16T06:11:54.422Z,125
2017-05-16T06:12:35.519Z,125
2017-05-16T06:13:16.351Z,125
2017-05-16T06:13:57.215Z,125
2017-05-16T06:14:37.774Z,130
2017-05-16T06:15:18.275Z,130
2017-05-16T06:15:58.772Z,130
2017-05-16T06:19:01.409Z,140
2017-05-16T06:19:49.689Z,145
2017-05-16T06:20:38.657Z,145
2017-05-16T06:21:27.953Z,150
2017-05-16T06:22:16.297Z,150
2017-05-16T06:23:04.756Z,155
2017-05-16T06:23:53.017Z,165
2017-05-16T06:24:42.738Z,170
2017-05-16T06:25:34.137Z,170
2017-05-16T06:26:23.031Z,170
2017-05-16T06:27:12.477Z,170
2017-05-16T06:28:07.151Z,165
2017-05-16T06:29:06.522Z,160
2017-05-16T06:29:58.262Z,160
2017-05-16T06:30:56.878Z,165
2017-05-16T06:31:49.136Z,175
2017-05-16T06:32:37.526Z,165
2017-05-16T06:33:25.923Z,155
2017-05-16T06:34:14.790Z,135
2017-05-16T06:35:04.235Z,130
2017-05-16T06:35:49.703Z,130
2017-05-16T06:36:38.174Z,130
2017-05-16T06:37:27.361Z,125
2017-05-16T06:38:16.062Z,125
2017-05-16T06:39:04.624Z,120
2017-05-16T06:39:53.298Z,120
2017-05-16T06:42:34.332Z,130
2017-05-16T06:43:15.058Z,140
2017-05-16T06:43:57.131Z,150
2017-05-16T06:44:37.687Z,140
2017-05-16T06:45:18.208Z,140
2017-05-16T06:45:58.616Z,145
2017-05-16T06:46:40.058Z,140
2017-05-16T06:47:23.326Z,135
2017-05-16T06:48:04.570Z,125
2017-05-16T06:48:47.190Z,115
2017-05-16T06:49:27.729Z,120
2017-05-16T06:50:11.967Z,130
2017-05-16T06:50:53.836Z,135
2017-05-16T06:51:36.654Z,145
2017-05-16T06:52:21.524Z,150
2017-05-16T06:53:19.237Z,145
2017-05-16T06:54:00.586Z,150
2017-05-16T06:54:43.814Z,155
2017-05-16T06:55:27.908Z,170
2017-05-16T06:56:09.183Z,190
2017-05-16T06:56:56.438Z,190
2017-05-16T06:57:38.669Z,180
2017-05-16T06:58:20.473Z,165
2017-05-16T06:59:01.693Z,160
2017-05-16T06:59:44.560Z,165
2017-05-16T07:00:25.233Z,160
2017-05-16T07:01:06.127Z,150
2017-05-16T07:01:49.984Z,145
2017-05-16T07:05:46.150Z,150
2017-05-16T07:06:34.566Z,145
2017-05-16T07:07:23.022Z,145
2017-05-16T07:08:11.570Z,145
2017-05-16T07:09:03.254Z,150
2017-05-16T07:09:49.580Z,155
2017-05-16T07:10:40.042Z,140
2017-05-16T07:11:29.289Z,135
2017-05-16T07:12:19.818Z,150
2017-05-16T07:14:51.000Z,150
2017-05-16T07:17:38.426Z,180
2017-05-16T07:18:27.904Z,195
2017-05-16T07:19:16.773Z,200
2017-05-16T07:20:06.412Z,205
2017-05-16T07:20:56.917Z,210
2017-05-16T07:21:48.530Z,220
2017-05-16T07:22:38.600Z,235
2017-05-16T07:23:27.906Z,220
2017-05-16T07:24:16.512Z,210
2017-05-16T07:25:05.115Z,205
2017-05-16T07:25:54.230Z,195
2017-05-16T07:26:47.470Z,190
2017-05-16T07:29:31.727Z,210
2017-05-16T07:30:20.892Z,210
2017-05-16T07:31:09.404Z,205
2017-05-16T07:31:58.517Z,200
2017-05-16T07:32:48.123Z,180
2017-05-16T07:33:37.451Z,160
2017-05-16T07:34:29.039Z,160
2017-05-16T07:35:18.499Z,170
2017-05-16T07:36:07.821Z,190
2017-05-16T07:36:59.227Z,200
2017-05-16T07:37:42.972Z,210
2017-05-16T07:38:24.044Z,215
2017-05-16T07:39:06.329Z,220
2017-05-16T07:39:47.494Z,215
2017-05-16T07:40:29.183Z,220
2017-05-16T07:41:11.237Z,210
2017-05-16T07:41:51.803Z,210
2017-05-16T07:42:33.657Z,225
2017-05-16T07:43:14.138Z,225
2017-05-16T07:43:54.675Z,200
2017-05-16T07:44:36.064Z,200
2017-05-16T07:45:16.778Z,200
2017-05-16T07:45:57.934Z,205
2017-05-16T07:46:38.364Z,190
2017-05-16T07:47:18.968Z,170
2017-05-16T07:48:00.439Z,160
2017-05-16T07:48:40.856Z,145
2017-05-16T07:49:24.836Z,155
2017-05-16T07:50:07.158Z,160
2017-05-16T07:50:52.183Z,150
2017-05-16T07:51:35.342Z,140
2017-05-16T07:52:15.839Z,130
2017-05-16T07:55:20.508Z,110
2017-05-16T07:57:11.566Z,100
2017-05-16T07:57:56.361Z,120
2017-05-16T07:58:46.922Z,125
2017-05-16T07:59:36.147Z,115
2017-05-16T08:00:25.058Z,105
2017-05-16T08:01:13.565Z,100
2017-05-16T08:02:02.766Z,95
2017-05-16T08:02:51.562Z,105
2017-05-16T08:03:38.960Z,120
2017-05-16T08:04:19.134Z,125
2017-05-16T08:05:01.517Z,125
2017-05-16T08:05:43.128Z,135
2017-05-16T08:06:23.666Z,145
2017-05-16T08:07:04.165Z,145
2017-05-16T08:07:44.876Z,155
2017-05-16T08:08:25.399Z,150
2017-05-16T08:09:05.932Z,125
2017-05-16T08:09:49.213Z,110
2017-05-16T08:10:29.679Z,110
2017-05-16T08:11:10.884Z,125
2017-05-16T08:11:51.396Z,125
2017-05-16T08:12:31.854Z,145
2017-05-16T08:13:12.356Z,145
2017-05-16T08:13:52.827Z,135
2017-05-16T08:14:34.481Z,135
2017-05-16T08:15:15.078Z,140
2017-05-16T08:15:57.158Z,145
2017-05-16T08:16:38.286Z,145
2017-05-16T08:17:21.395Z,125
2017-05-16T08:18:01.902Z,115
2017-05-16T08:20:32.046Z,95
2017-05-16T08:21:21.554Z,90
2017-05-16T08:22:10.708Z,90
2017-05-16T08:23:03.029Z,100
2017-05-16T08:23:54.282Z,105
2017-05-16T08:24:44.798Z,105
2017-05-16T08:25:34.132Z,105
2017-05-16T08:30:13.853Z,115
2017-05-16T08:31:03.699Z,125
2017-05-16T08:31:52.186Z,125
2017-05-16T08:32:46.807Z,130
2017-05-16T08:33:36.367Z,150
2017-05-16T08:34:27.837Z,160
2017-05-16T08:37:00.300Z,145
2017-05-16T08:37:58.008Z,160
2017-05-16T08:40:26.984Z,155
2017-05-16T08:57:18.444Z,135
2017-05-16T08:58:08.526Z,135
2017-05-16T08:58:57.402Z,125
2017-05-16T08:59:46.754Z,120
2017-05-16T09:01:24.402Z,125
2017-05-16T09:02:13.793Z,130
2017-05-16T09:03:04.859Z,135
2017-05-16T09:03:56.137Z,125
2017-05-16T09:04:44.878Z,140
2017-05-16T09:05:35.473Z,160
2017-05-16T09:06:23.821Z,130
2017-05-16T09:07:18.013Z,135
2017-05-16T09:08:20.424Z,145
2017-05-16T09:14:12.401Z,145
2017-05-16T09:15:01.221Z,185
2017-05-16T09:17:40.687Z,230
2017-05-16T09:22:44.883Z,195
2017-05-16T09:25:52.267Z,230
2017-05-16T09:26:40.933Z,215
2017-05-16T09:27:32.209Z,175
2017-05-16T09:28:20.559Z,135
2017-05-16T09:29:08.307Z,185
2017-05-16T09:29:58.887Z,240
2017-05-16T09:30:46.614Z,265
2017-05-16T09:31:38.089Z,200
2017-05-16T09:32:28.143Z,140
2017-05-16T09:33:19.834Z,155
2017-05-16T09:34:11.917Z,180
2017-05-16T09:34:59.776Z,210
2017-05-16T09:35:53.772Z,290
2017-05-16T09:46:04.091Z,215
2017-05-16T09:46:54.039Z,295
2017-05-16T09:49:51.909Z,260
2017-05-16T09:50:39.067Z,285
2017-05-16T09:51:30.073Z,265
2017-05-16T09:58:56.871Z,205
2017-05-16T09:59:45.967Z,190
2017-05-16T10:00:34.690Z,230
2017-05-16T10:01:23.623Z,210
2017-05-16T10:02:12.122Z,225
2017-05-16T10:03:00.690Z,225
2017-05-16T10:03:49.689Z,210
2017-05-16T10:13:12.064Z,250
2017-05-16T10:14:06.032Z,240
2017-05-16T10:18:17.305Z,285
2017-05-16T10:19:07.937Z,235
2017-05-16T10:19:58.929Z,270
2017-05-16T10:20:48.774Z,290
2017-05-16T10:21:36.921Z,255
2017-05-16T10:22:25.529Z,270
2017-05-16T10:23:17.635Z,295
2017-05-16T10:24:13.419Z,270
2017-05-16T10:25:05.603Z,230
2017-05-16T10:26:12.165Z,270
2017-05-16T10:27:04.068Z,275
2017-05-16T10:27:55.609Z,255
2017-05-16T10:28:46.280Z,245
2017-05-16T10:29:41.363Z,235
2017-05-16T10:34:31.254Z,215
2017-05-16T10:37:04.182Z,255
2017-05-16T10:37:54.893Z,255
2017-05-16T10:40:56.025Z,340
2017-05-16T10:41:51.895Z,335
2017-05-16T10:47:00.765Z,220
2017-05-16T10:53:43.362Z,265
2017-05-16T10:54:37.172Z,295
2017-05-16T10:55:28.703Z,265
2017-05-16T10:56:21.771Z,245
2017-05-16T10:57:13.782Z,230
2017-05-16T10:58:07.199Z,260
2017-05-16T10:59:02.443Z,235
2017-05-16T10:59:56.845Z,215
2017-05-16T11:02:37.608Z,340
2017-05-16T11:03:31.235Z,405
2017-05-16T11:04:21.376Z,395
2017-05-16T11:05:13.384Z,420
2017-05-16T11:06:05.098Z,395
2017-05-16T11:06:59.075Z,315
2017-05-16T11:07:56.686Z,280
2017-05-16T11:13:52.963Z,310
2017-05-16T11:14:43.920Z,315
2017-05-16T11:15:36.783Z,325
2017-05-16T11:16:34.275Z,260
2017-05-16T11:17:30.279Z,275
2017-05-16T11:18:30.374Z,225
2017-05-16T11:19:23.037Z,210
2017-05-16T11:22:53.554Z,165
2017-05-16T11:24:00.258Z,145
2017-05-16T11:27:17.361Z,140
2017-05-16T11:30:18.494Z,150
2017-05-16T11:31:04.342Z,165
2017-05-16T11:31:49.609Z,185
2017-05-16T11:32:39.759Z,180
2017-05-16T11:33:29.882Z,170
2017-05-16T11:34:14.205Z,170
2017-05-16T11:35:01.805Z,175
2017-05-16T11:35:48.153Z,210
2017-05-16T11:36:39.043Z,225
2017-05-16T11:37:26.658Z,235
2017-05-16T11:38:12.789Z,230
2017-05-16T11:39:00.587Z,225
2017-05-16T11:39:47.750Z,215
2017-05-16T11:40:33.099Z,215
2017-05-16T11:41:18.018Z,220
2017-05-16T11:42:03.408Z,230
2017-05-16T11:42:48.651Z,230
2017-05-16T11:43:35.847Z,240
2017-05-16T11:44:21.974Z,215
2017-05-16T11:45:10.475Z,230
2017-05-16T11:45:54.368Z,240
2017-05-16T11:46:39.211Z,230
2017-05-16T11:47:25.081Z,245
2017-05-16T11:48:10.800Z,260
2017-05-16T11:48:54.761Z,295
2017-05-16T11:49:41.549Z,260
2017-05-16T11:50:27.865Z,290
2017-05-16T11:51:11.917Z,260
2017-05-16T11:51:59.334Z,265
2017-05-16T11:52:44.762Z,250
2017-05-16T11:53:29.813Z,250
2017-05-16T11:54:10.753Z,260
2017-05-16T11:54:51.226Z,255
2017-05-16T11:55:32.550Z,245
2017-05-16T11:56:13.780Z,260
2017-05-16T11:56:54.824Z,260
2017-05-16T11:57:35.807Z,250
2017-05-16T11:58:18.245Z,250
2017-05-16T11:58:59.477Z,270
2017-05-16T11:59:40.894Z,290
2017-05-16T12:00:21.398Z,300
2017-05-16T12:01:03.370Z,315
2017-05-16T12:01:43.895Z,335
2017-05-16T12:02:24.551Z,365
2017-05-16T12:03:04.963Z,390
2017-05-16T12:03:45.512Z,385
2017-05-16T12:04:28.028Z,385
2017-05-16T12:05:10.029Z,375
2017-05-16T12:05:50.548Z,350
2017-05-16T12:06:32.023Z,340
2017-05-16T12:07:14.284Z,330
2017-05-16T12:07:55.728Z,370
2017-05-16T12:08:36.279Z,400
2017-05-16T12:09:18.227Z,400
2017-05-16T12:10:00.271Z,410